Главная страница
METAR-TAF:

METAR-TAF

Аэропорты :

Берлевог, Норвегия

широта: 70-52N, долгота: 029-02E, высота над уровнем моря: 1 м

Текущие метеонаблюдения

Эта сводка был подготовлена 7 часа и 47 минут назад, в 11:50 UTC
Ветер 2 Узел от восточно-северо-восточный
Температура 2°C
Влажность 55%
Давление 1010 hPa
Видимость 10 км и более
Нет облачности ниже 1500 м, и нет кучево-дождевой облачности

METAR: ENBV 261150Z 07002KT CAVOK 02/M06 Q1010

Время: 21:37 (19:37 UTC)

Прогноз

Эта сводка был подготовлена 11 часа и 37 минут назад, в 08:00 UTC
Прогноз действительный с 26-го 09 UTC до 26-го 12 UTC
Ветер 5 Узел от юго-западный
Видимость 10 км и более
Нет облачности ниже 1500 м, и нет кучево-дождевой облачности

TAF: ENBV 260800Z 2609/2612 23005KT CAVOK

Метеонаблюдения и прогнозы для более 4000 аэропортов (сводки METAR и TAF).

Имеющиеся станции представлены на карте желтыми и красными точками.

Чтобы увидеть название станции, наведите на нее мышь.

Затем щелкните, чтобы увидеть метеонаблюдения и метеопрогнозы.

Управление картой: чтобы увеличить масштаб, щелкните зеленые кнопки с черным крестиком; чтобы уменьшить масштаб, щелкните зеленую кнопку с тире; для просмотра соседних карт щелкайте зеленые стрелки.


METAR-TAF: